sensor_id;sensor_type;location;lat;lon;timestamp;P1;durP1;ratioP1;P2;durP2;ratioP2
16510;SDS011;8368;48.772;8.754;2023-04-24T00:01:49;0.70;;;0.70;;
16510;SDS011;8368;48.772;8.754;2023-04-24T00:04:15;0.50;;;0.50;;
16510;SDS011;8368;48.772;8.754;2023-04-24T00:06:42;0.60;;;0.60;;
16510;SDS011;8368;48.772;8.754;2023-04-24T00:09:08;0.60;;;0.60;;
16510;SDS011;8368;48.772;8.754;2023-04-24T00:11:37;0.40;;;0.40;;
16510;SDS011;8368;48.772;8.754;2023-04-24T00:14:02;0.80;;;0.80;;
16510;SDS011;8368;48.772;8.754;2023-04-24T00:16:28;0.50;;;0.50;;
16510;SDS011;8368;48.772;8.754;2023-04-24T00:18:54;1.87;;;0.90;;
16510;SDS011;8368;48.772;8.754;2023-04-24T00:21:20;0.40;;;0.40;;
16510;SDS011;8368;48.772;8.754;2023-04-24T00:23:46;0.87;;;0.60;;
16510;SDS011;8368;48.772;8.754;2023-04-24T00:26:12;0.43;;;0.40;;
16510;SDS011;8368;48.772;8.754;2023-04-24T00:28:38;0.60;;;0.60;;
16510;SDS011;8368;48.772;8.754;2023-04-24T00:31:04;0.50;;;0.50;;
16510;SDS011;8368;48.772;8.754;2023-04-24T00:33:29;0.40;;;0.40;;
16510;SDS011;8368;48.772;8.754;2023-04-24T00:35:55;0.50;;;0.50;;
16510;SDS011;8368;48.772;8.754;2023-04-24T00:38:20;0.60;;;0.60;;
16510;SDS011;8368;48.772;8.754;2023-04-24T00:40:47;0.70;;;0.70;;
16510;SDS011;8368;48.772;8.754;2023-04-24T00:43:14;0.50;;;0.50;;
16510;SDS011;8368;48.772;8.754;2023-04-24T00:45:40;0.50;;;0.50;;
16510;SDS011;8368;48.772;8.754;2023-04-24T00:48:06;0.70;;;0.70;;
16510;SDS011;8368;48.772;8.754;2023-04-24T00:50:32;0.87;;;0.70;;
16510;SDS011;8368;48.772;8.754;2023-04-24T00:52:58;0.30;;;0.30;;
16510;SDS011;8368;48.772;8.754;2023-04-24T00:55:24;0.97;;;0.57;;
16510;SDS011;8368;48.772;8.754;2023-04-24T00:57:50;0.60;;;0.60;;
16510;SDS011;8368;48.772;8.754;2023-04-24T01:00:16;0.40;;;0.40;;
16510;SDS011;8368;48.772;8.754;2023-04-24T01:02:43;0.50;;;0.50;;
16510;SDS011;8368;48.772;8.754;2023-04-24T01:05:10;0.40;;;0.40;;
16510;SDS011;8368;48.772;8.754;2023-04-24T01:07:36;0.80;;;0.80;;
16510;SDS011;8368;48.772;8.754;2023-04-24T01:10:02;0.73;;;0.60;;
16510;SDS011;8368;48.772;8.754;2023-04-24T01:12:28;0.40;;;0.40;;
16510;SDS011;8368;48.772;8.754;2023-04-24T01:14:54;0.67;;;0.67;;
16510;SDS011;8368;48.772;8.754;2023-04-24T01:17:21;0.30;;;0.30;;
16510;SDS011;8368;48.772;8.754;2023-04-24T01:19:47;0.60;;;0.60;;
16510;SDS011;8368;48.772;8.754;2023-04-24T01:22:13;0.50;;;0.50;;
16510;SDS011;8368;48.772;8.754;2023-04-24T01:24:39;0.40;;;0.40;;
16510;SDS011;8368;48.772;8.754;2023-04-24T01:27:06;0.40;;;0.40;;
16510;SDS011;8368;48.772;8.754;2023-04-24T01:29:33;0.70;;;0.70;;
16510;SDS011;8368;48.772;8.754;2023-04-24T01:31:59;0.60;;;0.60;;
16510;SDS011;8368;48.772;8.754;2023-04-24T01:34:25;0.50;;;0.50;;
16510;SDS011;8368;48.772;8.754;2023-04-24T01:36:51;0.50;;;0.50;;
16510;SDS011;8368;48.772;8.754;2023-04-24T01:39:17;1.07;;;1.03;;
16510;SDS011;8368;48.772;8.754;2023-04-24T01:41:45;3.80;;;2.17;;
16510;SDS011;8368;48.772;8.754;2023-04-24T01:44:11;1.20;;;1.20;;
16510;SDS011;8368;48.772;8.754;2023-04-24T01:46:37;1.07;;;1.07;;
16510;SDS011;8368;48.772;8.754;2023-04-24T01:49:03;1.70;;;0.97;;
16510;SDS011;8368;48.772;8.754;2023-04-24T01:51:28;2.40;;;0.60;;
16510;SDS011;8368;48.772;8.754;2023-04-24T01:53:55;0.50;;;0.50;;
16510;SDS011;8368;48.772;8.754;2023-04-24T01:56:21;0.60;;;0.50;;
16510;SDS011;8368;48.772;8.754;2023-04-24T01:58:47;0.60;;;0.60;;
16510;SDS011;8368;48.772;8.754;2023-04-24T02:01:17;0.97;;;0.97;;
16510;SDS011;8368;48.772;8.754;2023-04-24T02:03:44;0.80;;;0.80;;
16510;SDS011;8368;48.772;8.754;2023-04-24T02:06:09;0.70;;;0.70;;
16510;SDS011;8368;48.772;8.754;2023-04-24T02:08:35;0.60;;;0.60;;
16510;SDS011;8368;48.772;8.754;2023-04-24T02:11:00;0.53;;;0.53;;
16510;SDS011;8368;48.772;8.754;2023-04-24T02:13:27;0.53;;;0.53;;
16510;SDS011;8368;48.772;8.754;2023-04-24T02:15:53;0.50;;;0.50;;
16510;SDS011;8368;48.772;8.754;2023-04-24T02:18:18;1.07;;;0.60;;
16510;SDS011;8368;48.772;8.754;2023-04-24T02:20:44;0.43;;;0.43;;
16510;SDS011;8368;48.772;8.754;2023-04-24T02:23:10;1.60;;;0.77;;
16510;SDS011;8368;48.772;8.754;2023-04-24T02:25:35;0.80;;;0.77;;
16510;SDS011;8368;48.772;8.754;2023-04-24T02:28:01;0.73;;;0.73;;
16510;SDS011;8368;48.772;8.754;2023-04-24T02:30:27;0.80;;;0.80;;
16510;SDS011;8368;48.772;8.754;2023-04-24T02:32:53;0.73;;;0.73;;
16510;SDS011;8368;48.772;8.754;2023-04-24T02:35:19;0.50;;;0.50;;
16510;SDS011;8368;48.772;8.754;2023-04-24T02:37:44;0.70;;;0.70;;
16510;SDS011;8368;48.772;8.754;2023-04-24T02:40:10;0.77;;;0.77;;
16510;SDS011;8368;48.772;8.754;2023-04-24T02:42:36;0.80;;;0.80;;
16510;SDS011;8368;48.772;8.754;2023-04-24T02:45:01;0.60;;;0.60;;
16510;SDS011;8368;48.772;8.754;2023-04-24T02:47:27;0.60;;;0.60;;
16510;SDS011;8368;48.772;8.754;2023-04-24T02:49:52;0.70;;;0.70;;
16510;SDS011;8368;48.772;8.754;2023-04-24T02:52:18;0.80;;;0.80;;
16510;SDS011;8368;48.772;8.754;2023-04-24T02:54:43;0.80;;;0.80;;
16510;SDS011;8368;48.772;8.754;2023-04-24T02:57:09;1.10;;;1.10;;
16510;SDS011;8368;48.772;8.754;2023-04-24T02:59:35;0.67;;;0.67;;
16510;SDS011;8368;48.772;8.754;2023-04-24T03:02:00;0.70;;;0.70;;
16510;SDS011;8368;48.772;8.754;2023-04-24T03:04:26;0.70;;;0.70;;
16510;SDS011;8368;48.772;8.754;2023-04-24T03:06:51;1.70;;;0.90;;
16510;SDS011;8368;48.772;8.754;2023-04-24T03:09:19;0.80;;;0.80;;
16510;SDS011;8368;48.772;8.754;2023-04-24T03:11:45;1.10;;;1.00;;
16510;SDS011;8368;48.772;8.754;2023-04-24T03:14:11;0.70;;;0.70;;
16510;SDS011;8368;48.772;8.754;2023-04-24T03:16:37;0.50;;;0.50;;
16510;SDS011;8368;48.772;8.754;2023-04-24T03:19:02;0.90;;;0.90;;
16510;SDS011;8368;48.772;8.754;2023-04-24T03:21:28;0.63;;;0.63;;
16510;SDS011;8368;48.772;8.754;2023-04-24T03:23:53;0.40;;;0.40;;
16510;SDS011;8368;48.772;8.754;2023-04-24T03:26:19;0.60;;;0.60;;
16510;SDS011;8368;48.772;8.754;2023-04-24T03:28:45;0.90;;;0.90;;
16510;SDS011;8368;48.772;8.754;2023-04-24T03:31:10;0.73;;;0.67;;
16510;SDS011;8368;48.772;8.754;2023-04-24T03:33:36;0.90;;;0.90;;
16510;SDS011;8368;48.772;8.754;2023-04-24T03:36:01;0.60;;;0.60;;
16510;SDS011;8368;48.772;8.754;2023-04-24T03:38:27;0.80;;;0.80;;
16510;SDS011;8368;48.772;8.754;2023-04-24T03:40:53;0.70;;;0.70;;
16510;SDS011;8368;48.772;8.754;2023-04-24T03:43:18;1.23;;;0.90;;
16510;SDS011;8368;48.772;8.754;2023-04-24T03:45:44;0.70;;;0.70;;
16510;SDS011;8368;48.772;8.754;2023-04-24T03:48:09;0.60;;;0.60;;
16510;SDS011;8368;48.772;8.754;2023-04-24T03:50:35;1.03;;;1.03;;
16510;SDS011;8368;48.772;8.754;2023-04-24T03:53:00;0.70;;;0.70;;
16510;SDS011;8368;48.772;8.754;2023-04-24T03:55:26;0.73;;;0.73;;
16510;SDS011;8368;48.772;8.754;2023-04-24T03:57:52;0.67;;;0.67;;
16510;SDS011;8368;48.772;8.754;2023-04-24T04:00:17;0.73;;;0.73;;
16510;SDS011;8368;48.772;8.754;2023-04-24T04:02:43;0.93;;;0.70;;
16510;SDS011;8368;48.772;8.754;2023-04-24T04:05:09;0.60;;;0.60;;
16510;SDS011;8368;48.772;8.754;2023-04-24T04:07:34;0.90;;;0.90;;
16510;SDS011;8368;48.772;8.754;2023-04-24T04:10:00;1.70;;;0.80;;
16510;SDS011;8368;48.772;8.754;2023-04-24T04:12:25;0.70;;;0.70;;
16510;SDS011;8368;48.772;8.754;2023-04-24T04:14:51;1.23;;;1.00;;
16510;SDS011;8368;48.772;8.754;2023-04-24T04:17:16;0.70;;;0.70;;
16510;SDS011;8368;48.772;8.754;2023-04-24T04:19:42;1.00;;;1.00;;
16510;SDS011;8368;48.772;8.754;2023-04-24T04:22:08;0.90;;;0.90;;
16510;SDS011;8368;48.772;8.754;2023-04-24T04:24:33;0.87;;;0.87;;
16510;SDS011;8368;48.772;8.754;2023-04-24T04:27:02;0.83;;;0.83;;
16510;SDS011;8368;48.772;8.754;2023-04-24T04:29:29;0.80;;;0.80;;
16510;SDS011;8368;48.772;8.754;2023-04-24T04:31:56;0.70;;;0.70;;
16510;SDS011;8368;48.772;8.754;2023-04-24T04:34:22;0.97;;;0.97;;
16510;SDS011;8368;48.772;8.754;2023-04-24T04:36:48;0.80;;;0.80;;
16510;SDS011;8368;48.772;8.754;2023-04-24T04:39:13;0.97;;;0.70;;
16510;SDS011;8368;48.772;8.754;2023-04-24T04:41:43;0.80;;;0.80;;
16510;SDS011;8368;48.772;8.754;2023-04-24T04:44:11;1.23;;;0.90;;
16510;SDS011;8368;48.772;8.754;2023-04-24T04:46:37;0.77;;;0.77;;
16510;SDS011;8368;48.772;8.754;2023-04-24T04:49:03;0.97;;;0.97;;
16510;SDS011;8368;48.772;8.754;2023-04-24T04:51:29;1.00;;;1.00;;
16510;SDS011;8368;48.772;8.754;2023-04-24T04:53:55;1.10;;;1.10;;
16510;SDS011;8368;48.772;8.754;2023-04-24T04:56:21;0.90;;;0.90;;
16510;SDS011;8368;48.772;8.754;2023-04-24T04:58:47;0.80;;;0.80;;
16510;SDS011;8368;48.772;8.754;2023-04-24T05:01:12;1.00;;;1.00;;
16510;SDS011;8368;48.772;8.754;2023-04-24T05:03:38;1.23;;;1.20;;
16510;SDS011;8368;48.772;8.754;2023-04-24T05:06:03;1.17;;;1.17;;
16510;SDS011;8368;48.772;8.754;2023-04-24T05:08:29;1.70;;;1.60;;
16510;SDS011;8368;48.772;8.754;2023-04-24T05:10:55;2.37;;;1.50;;
16510;SDS011;8368;48.772;8.754;2023-04-24T05:13:20;1.87;;;1.77;;
16510;SDS011;8368;48.772;8.754;2023-04-24T05:15:46;1.33;;;1.30;;
16510;SDS011;8368;48.772;8.754;2023-04-24T05:18:12;1.40;;;1.40;;
16510;SDS011;8368;48.772;8.754;2023-04-24T05:20:37;2.07;;;1.43;;
16510;SDS011;8368;48.772;8.754;2023-04-24T05:23:03;1.90;;;1.80;;
16510;SDS011;8368;48.772;8.754;2023-04-24T05:25:28;1.57;;;1.57;;
16510;SDS011;8368;48.772;8.754;2023-04-24T05:27:54;1.53;;;1.53;;
16510;SDS011;8368;48.772;8.754;2023-04-24T05:30:19;1.57;;;1.57;;
16510;SDS011;8368;48.772;8.754;2023-04-24T05:32:45;1.37;;;1.33;;
16510;SDS011;8368;48.772;8.754;2023-04-24T05:35:11;1.47;;;1.47;;
16510;SDS011;8368;48.772;8.754;2023-04-24T05:37:36;1.40;;;1.40;;
16510;SDS011;8368;48.772;8.754;2023-04-24T05:40:02;1.80;;;1.70;;
16510;SDS011;8368;48.772;8.754;2023-04-24T05:42:30;1.40;;;1.40;;
16510;SDS011;8368;48.772;8.754;2023-04-24T05:44:56;1.47;;;1.47;;
16510;SDS011;8368;48.772;8.754;2023-04-24T05:47:21;3.33;;;1.87;;
16510;SDS011;8368;48.772;8.754;2023-04-24T05:49:47;1.27;;;1.27;;
16510;SDS011;8368;48.772;8.754;2023-04-24T05:52:13;1.20;;;1.20;;
16510;SDS011;8368;48.772;8.754;2023-04-24T05:54:38;1.43;;;1.30;;
16510;SDS011;8368;48.772;8.754;2023-04-24T05:57:04;1.23;;;1.23;;
16510;SDS011;8368;48.772;8.754;2023-04-24T05:59:33;1.40;;;1.40;;
16510;SDS011;8368;48.772;8.754;2023-04-24T06:01:59;1.17;;;1.17;;
16510;SDS011;8368;48.772;8.754;2023-04-24T06:04:25;1.57;;;1.47;;
16510;SDS011;8368;48.772;8.754;2023-04-24T06:06:50;1.50;;;1.40;;
16510;SDS011;8368;48.772;8.754;2023-04-24T06:09:20;1.40;;;1.40;;
16510;SDS011;8368;48.772;8.754;2023-04-24T06:11:49;1.37;;;1.27;;
16510;SDS011;8368;48.772;8.754;2023-04-24T06:14:18;1.20;;;1.20;;
16510;SDS011;8368;48.772;8.754;2023-04-24T06:16:44;1.50;;;1.50;;
16510;SDS011;8368;48.772;8.754;2023-04-24T06:19:10;1.10;;;1.10;;
16510;SDS011;8368;48.772;8.754;2023-04-24T06:21:35;1.30;;;1.30;;
16510;SDS011;8368;48.772;8.754;2023-04-24T06:24:01;1.23;;;1.23;;
16510;SDS011;8368;48.772;8.754;2023-04-24T06:26:27;1.73;;;1.27;;
16510;SDS011;8368;48.772;8.754;2023-04-24T06:28:53;1.30;;;1.30;;
16510;SDS011;8368;48.772;8.754;2023-04-24T06:31:21;1.23;;;1.23;;
16510;SDS011;8368;48.772;8.754;2023-04-24T06:33:47;1.13;;;1.13;;
16510;SDS011;8368;48.772;8.754;2023-04-24T06:36:13;1.60;;;1.50;;
16510;SDS011;8368;48.772;8.754;2023-04-24T06:38:39;1.20;;;1.20;;
16510;SDS011;8368;48.772;8.754;2023-04-24T06:41:04;1.10;;;1.10;;
16510;SDS011;8368;48.772;8.754;2023-04-24T06:43:30;3.27;;;1.43;;
16510;SDS011;8368;48.772;8.754;2023-04-24T06:45:59;1.50;;;1.40;;
16510;SDS011;8368;48.772;8.754;2023-04-24T06:48:25;1.30;;;1.30;;
16510;SDS011;8368;48.772;8.754;2023-04-24T06:50:51;1.30;;;1.30;;
16510;SDS011;8368;48.772;8.754;2023-04-24T06:53:17;1.00;;;1.00;;
16510;SDS011;8368;48.772;8.754;2023-04-24T06:55:43;0.77;;;0.77;;
16510;SDS011;8368;48.772;8.754;2023-04-24T06:58:10;1.43;;;1.43;;
16510;SDS011;8368;48.772;8.754;2023-04-24T07:00:35;1.27;;;1.20;;
16510;SDS011;8368;48.772;8.754;2023-04-24T07:03:01;1.20;;;1.20;;
16510;SDS011;8368;48.772;8.754;2023-04-24T07:05:27;1.10;;;1.10;;
16510;SDS011;8368;48.772;8.754;2023-04-24T07:07:53;1.10;;;1.10;;
16510;SDS011;8368;48.772;8.754;2023-04-24T07:10:18;0.93;;;0.93;;
16510;SDS011;8368;48.772;8.754;2023-04-24T07:12:45;1.00;;;1.00;;
16510;SDS011;8368;48.772;8.754;2023-04-24T07:15:11;0.97;;;0.97;;
16510;SDS011;8368;48.772;8.754;2023-04-24T07:17:37;1.07;;;1.07;;
16510;SDS011;8368;48.772;8.754;2023-04-24T07:20:03;1.00;;;1.00;;
16510;SDS011;8368;48.772;8.754;2023-04-24T07:22:30;1.13;;;1.13;;
16510;SDS011;8368;48.772;8.754;2023-04-24T07:24:56;2.23;;;0.90;;
16510;SDS011;8368;48.772;8.754;2023-04-24T07:27:21;1.40;;;1.00;;
16510;SDS011;8368;48.772;8.754;2023-04-24T07:29:47;0.90;;;0.90;;
16510;SDS011;8368;48.772;8.754;2023-04-24T07:32:13;5.43;;;1.20;;
16510;SDS011;8368;48.772;8.754;2023-04-24T07:34:38;0.90;;;0.90;;
16510;SDS011;8368;48.772;8.754;2023-04-24T07:37:04;1.10;;;1.10;;
16510;SDS011;8368;48.772;8.754;2023-04-24T07:39:30;1.20;;;1.20;;
16510;SDS011;8368;48.772;8.754;2023-04-24T07:41:55;1.00;;;1.00;;
16510;SDS011;8368;48.772;8.754;2023-04-24T07:44:21;1.07;;;1.07;;
16510;SDS011;8368;48.772;8.754;2023-04-24T07:46:47;0.80;;;0.80;;
16510;SDS011;8368;48.772;8.754;2023-04-24T07:49:12;1.87;;;0.90;;
16510;SDS011;8368;48.772;8.754;2023-04-24T07:51:38;1.03;;;1.03;;
16510;SDS011;8368;48.772;8.754;2023-04-24T07:54:04;1.00;;;1.00;;
16510;SDS011;8368;48.772;8.754;2023-04-24T07:56:33;1.10;;;1.10;;
16510;SDS011;8368;48.772;8.754;2023-04-24T07:58:59;1.30;;;1.20;;
16510;SDS011;8368;48.772;8.754;2023-04-24T08:01:26;1.20;;;1.20;;
16510;SDS011;8368;48.772;8.754;2023-04-24T08:03:51;0.90;;;0.90;;
16510;SDS011;8368;48.772;8.754;2023-04-24T08:06:17;1.03;;;1.03;;
16510;SDS011;8368;48.772;8.754;2023-04-24T08:08:43;2.10;;;1.00;;
16510;SDS011;8368;48.772;8.754;2023-04-24T08:11:08;0.90;;;0.90;;
16510;SDS011;8368;48.772;8.754;2023-04-24T08:13:34;0.97;;;0.97;;
16510;SDS011;8368;48.772;8.754;2023-04-24T08:15:59;1.10;;;1.10;;
16510;SDS011;8368;48.772;8.754;2023-04-24T08:18:25;1.00;;;1.00;;
16510;SDS011;8368;48.772;8.754;2023-04-24T08:20:51;1.50;;;1.13;;
16510;SDS011;8368;48.772;8.754;2023-04-24T08:23:16;1.50;;;1.40;;
16510;SDS011;8368;48.772;8.754;2023-04-24T08:25:42;4.10;;;1.40;;
16510;SDS011;8368;48.772;8.754;2023-04-24T08:28:08;1.60;;;1.50;;
16510;SDS011;8368;48.772;8.754;2023-04-24T08:30:34;1.50;;;1.20;;
16510;SDS011;8368;48.772;8.754;2023-04-24T08:33:00;0.93;;;0.93;;
16510;SDS011;8368;48.772;8.754;2023-04-24T08:35:25;1.00;;;1.00;;
16510;SDS011;8368;48.772;8.754;2023-04-24T08:37:51;1.07;;;1.07;;
16510;SDS011;8368;48.772;8.754;2023-04-24T08:40:18;1.30;;;1.30;;
16510;SDS011;8368;48.772;8.754;2023-04-24T08:42:54;2.83;;;1.60;;
16510;SDS011;8368;48.772;8.754;2023-04-24T08:45:21;1.50;;;1.37;;
16510;SDS011;8368;48.772;8.754;2023-04-24T08:47:47;1.60;;;1.60;;
16510;SDS011;8368;48.772;8.754;2023-04-24T08:50:14;0.90;;;0.90;;
16510;SDS011;8368;48.772;8.754;2023-04-24T08:52:40;1.20;;;1.20;;
16510;SDS011;8368;48.772;8.754;2023-04-24T08:55:07;1.53;;;1.43;;
16510;SDS011;8368;48.772;8.754;2023-04-24T08:57:33;1.77;;;1.73;;
16510;SDS011;8368;48.772;8.754;2023-04-24T09:00:00;1.20;;;1.20;;
16510;SDS011;8368;48.772;8.754;2023-04-24T09:02:26;1.00;;;1.00;;
16510;SDS011;8368;48.772;8.754;2023-04-24T09:04:53;1.17;;;1.17;;
16510;SDS011;8368;48.772;8.754;2023-04-24T09:07:22;1.33;;;1.30;;
16510;SDS011;8368;48.772;8.754;2023-04-24T09:09:50;1.30;;;1.30;;
16510;SDS011;8368;48.772;8.754;2023-04-24T09:12:16;1.00;;;1.00;;
16510;SDS011;8368;48.772;8.754;2023-04-24T09:14:44;1.07;;;1.07;;
16510;SDS011;8368;48.772;8.754;2023-04-24T09:17:10;1.50;;;1.40;;
16510;SDS011;8368;48.772;8.754;2023-04-24T09:19:36;1.00;;;1.00;;
16510;SDS011;8368;48.772;8.754;2023-04-24T09:22:05;1.13;;;1.03;;
16510;SDS011;8368;48.772;8.754;2023-04-24T09:24:34;1.00;;;1.00;;
16510;SDS011;8368;48.772;8.754;2023-04-24T09:27:00;0.80;;;0.80;;
16510;SDS011;8368;48.772;8.754;2023-04-24T09:29:29;0.87;;;0.87;;
16510;SDS011;8368;48.772;8.754;2023-04-24T09:31:55;1.07;;;1.07;;
16510;SDS011;8368;48.772;8.754;2023-04-24T09:34:21;1.10;;;1.00;;
16510;SDS011;8368;48.772;8.754;2023-04-24T09:36:48;1.23;;;1.13;;
16510;SDS011;8368;48.772;8.754;2023-04-24T09:39:15;1.00;;;1.00;;
16510;SDS011;8368;48.772;8.754;2023-04-24T09:42:02;0.90;;;0.90;;
16510;SDS011;8368;48.772;8.754;2023-04-24T09:44:27;1.13;;;1.00;;
16510;SDS011;8368;48.772;8.754;2023-04-24T09:46:54;0.80;;;0.80;;
16510;SDS011;8368;48.772;8.754;2023-04-24T09:49:24;0.83;;;0.83;;
16510;SDS011;8368;48.772;8.754;2023-04-24T09:52:04;0.93;;;0.93;;
16510;SDS011;8368;48.772;8.754;2023-04-24T09:54:31;0.90;;;0.90;;
16510;SDS011;8368;48.772;8.754;2023-04-24T09:56:57;1.10;;;1.10;;
16510;SDS011;8368;48.772;8.754;2023-04-24T09:59:25;0.97;;;0.97;;
16510;SDS011;8368;48.772;8.754;2023-04-24T10:01:50;1.00;;;1.00;;
16510;SDS011;8368;48.772;8.754;2023-04-24T10:06:43;1.20;;;1.20;;
16510;SDS011;8368;48.772;8.754;2023-04-24T10:09:09;1.10;;;1.10;;
16510;SDS011;8368;48.772;8.754;2023-04-24T10:11:37;0.80;;;0.80;;
16510;SDS011;8368;48.772;8.754;2023-04-24T10:14:09;0.83;;;0.83;;
16510;SDS011;8368;48.772;8.754;2023-04-24T10:16:37;0.60;;;0.60;;
16510;SDS011;8368;48.772;8.754;2023-04-24T10:19:05;0.97;;;0.90;;
16510;SDS011;8368;48.772;8.754;2023-04-24T10:21:31;0.60;;;0.60;;
16510;SDS011;8368;48.772;8.754;2023-04-24T10:23:57;0.90;;;0.90;;
16510;SDS011;8368;48.772;8.754;2023-04-24T10:26:24;0.77;;;0.77;;
16510;SDS011;8368;48.772;8.754;2023-04-24T10:28:51;1.07;;;1.07;;
16510;SDS011;8368;48.772;8.754;2023-04-24T10:31:18;0.70;;;0.70;;
16510;SDS011;8368;48.772;8.754;2023-04-24T10:33:45;0.87;;;0.87;;
16510;SDS011;8368;48.772;8.754;2023-04-24T10:36:11;0.60;;;0.60;;
16510;SDS011;8368;48.772;8.754;2023-04-24T10:38:39;0.60;;;0.60;;
16510;SDS011;8368;48.772;8.754;2023-04-24T10:41:10;1.00;;;1.00;;
16510;SDS011;8368;48.772;8.754;2023-04-24T10:43:41;0.90;;;0.90;;
16510;SDS011;8368;48.772;8.754;2023-04-24T10:46:07;0.77;;;0.77;;
16510;SDS011;8368;48.772;8.754;2023-04-24T10:48:35;0.93;;;0.60;;
16510;SDS011;8368;48.772;8.754;2023-04-24T10:51:00;1.67;;;0.77;;
16510;SDS011;8368;48.772;8.754;2023-04-24T10:53:29;0.90;;;0.90;;
16510;SDS011;8368;48.772;8.754;2023-04-24T10:58:35;0.73;;;0.73;;
16510;SDS011;8368;48.772;8.754;2023-04-24T11:01:05;0.90;;;0.90;;
16510;SDS011;8368;48.772;8.754;2023-04-24T11:03:32;1.13;;;0.93;;
16510;SDS011;8368;48.772;8.754;2023-04-24T11:06:00;0.90;;;0.90;;
16510;SDS011;8368;48.772;8.754;2023-04-24T11:08:36;0.90;;;0.90;;
16510;SDS011;8368;48.772;8.754;2023-04-24T11:11:11;1.07;;;1.03;;
16510;SDS011;8368;48.772;8.754;2023-04-24T11:24:23;1.70;;;1.00;;
16510;SDS011;8368;48.772;8.754;2023-04-24T11:26:57;1.60;;;1.50;;
16510;SDS011;8368;48.772;8.754;2023-04-24T11:34:47;1.43;;;1.40;;
16510;SDS011;8368;48.772;8.754;2023-04-24T11:37:13;1.00;;;1.00;;
16510;SDS011;8368;48.772;8.754;2023-04-24T11:39:40;4.00;;;1.17;;
16510;SDS011;8368;48.772;8.754;2023-04-24T11:42:06;1.10;;;0.97;;
16510;SDS011;8368;48.772;8.754;2023-04-24T11:44:33;0.90;;;0.90;;
16510;SDS011;8368;48.772;8.754;2023-04-24T11:47:02;1.00;;;1.00;;
16510;SDS011;8368;48.772;8.754;2023-04-24T11:49:30;0.80;;;0.80;;
16510;SDS011;8368;48.772;8.754;2023-04-24T11:51:56;1.10;;;1.10;;
16510;SDS011;8368;48.772;8.754;2023-04-24T11:54:22;1.00;;;1.00;;
16510;SDS011;8368;48.772;8.754;2023-04-24T11:56:47;1.23;;;1.10;;
16510;SDS011;8368;48.772;8.754;2023-04-24T11:59:14;0.90;;;0.90;;
16510;SDS011;8368;48.772;8.754;2023-04-24T12:01:43;0.90;;;0.90;;
16510;SDS011;8368;48.772;8.754;2023-04-24T12:04:10;0.97;;;0.97;;
16510;SDS011;8368;48.772;8.754;2023-04-24T12:06:36;1.07;;;0.90;;
16510;SDS011;8368;48.772;8.754;2023-04-24T12:09:01;0.90;;;0.90;;
16510;SDS011;8368;48.772;8.754;2023-04-24T12:11:27;1.00;;;1.00;;
16510;SDS011;8368;48.772;8.754;2023-04-24T12:13:53;1.43;;;1.37;;
16510;SDS011;8368;48.772;8.754;2023-04-24T12:16:19;1.20;;;1.20;;
16510;SDS011;8368;48.772;8.754;2023-04-24T12:18:45;0.87;;;0.87;;
16510;SDS011;8368;48.772;8.754;2023-04-24T12:21:14;0.80;;;0.80;;
16510;SDS011;8368;48.772;8.754;2023-04-24T12:23:42;1.13;;;1.13;;
16510;SDS011;8368;48.772;8.754;2023-04-24T12:26:09;1.07;;;1.07;;
16510;SDS011;8368;48.772;8.754;2023-04-24T12:28:35;0.83;;;0.83;;
16510;SDS011;8368;48.772;8.754;2023-04-24T12:31:02;0.90;;;0.90;;
16510;SDS011;8368;48.772;8.754;2023-04-24T12:33:28;0.87;;;0.87;;
16510;SDS011;8368;48.772;8.754;2023-04-24T12:35:58;1.10;;;1.10;;
16510;SDS011;8368;48.772;8.754;2023-04-24T12:38:25;1.10;;;1.10;;
16510;SDS011;8368;48.772;8.754;2023-04-24T12:41:05;1.00;;;1.00;;
16510;SDS011;8368;48.772;8.754;2023-04-24T12:43:32;1.40;;;1.30;;
16510;SDS011;8368;48.772;8.754;2023-04-24T12:45:58;1.07;;;0.97;;
16510;SDS011;8368;48.772;8.754;2023-04-24T12:48:24;1.30;;;1.30;;
16510;SDS011;8368;48.772;8.754;2023-04-24T12:50:50;1.03;;;1.03;;
16510;SDS011;8368;48.772;8.754;2023-04-24T12:53:16;2.00;;;1.30;;
16510;SDS011;8368;48.772;8.754;2023-04-24T12:55:42;1.00;;;1.00;;
16510;SDS011;8368;48.772;8.754;2023-04-24T12:58:07;1.03;;;1.03;;
16510;SDS011;8368;48.772;8.754;2023-04-24T13:00:33;1.20;;;1.20;;
16510;SDS011;8368;48.772;8.754;2023-04-24T13:02:58;1.20;;;1.20;;
16510;SDS011;8368;48.772;8.754;2023-04-24T13:05:24;0.97;;;0.97;;
16510;SDS011;8368;48.772;8.754;2023-04-24T13:07:49;1.70;;;1.37;;
16510;SDS011;8368;48.772;8.754;2023-04-24T13:10:15;1.20;;;1.20;;
16510;SDS011;8368;48.772;8.754;2023-04-24T13:12:41;0.73;;;0.73;;
16510;SDS011;8368;48.772;8.754;2023-04-24T13:15:10;1.80;;;0.93;;
16510;SDS011;8368;48.772;8.754;2023-04-24T13:17:35;1.10;;;1.10;;
16510;SDS011;8368;48.772;8.754;2023-04-24T13:20:01;1.10;;;1.10;;
16510;SDS011;8368;48.772;8.754;2023-04-24T13:22:27;1.00;;;1.00;;
16510;SDS011;8368;48.772;8.754;2023-04-24T13:24:53;1.10;;;1.10;;
16510;SDS011;8368;48.772;8.754;2023-04-24T13:27:18;0.70;;;0.70;;
16510;SDS011;8368;48.772;8.754;2023-04-24T13:29:45;1.07;;;1.00;;
16510;SDS011;8368;48.772;8.754;2023-04-24T13:32:10;0.85;;;0.85;;
16510;SDS011;8368;48.772;8.754;2023-04-24T13:34:36;1.33;;;1.20;;
16510;SDS011;8368;48.772;8.754;2023-04-24T13:37:02;0.90;;;0.90;;
16510;SDS011;8368;48.772;8.754;2023-04-24T13:39:28;1.20;;;1.20;;
16510;SDS011;8368;48.772;8.754;2023-04-24T13:41:54;1.20;;;1.20;;
16510;SDS011;8368;48.772;8.754;2023-04-24T13:44:20;1.02;;;1.02;;
16510;SDS011;8368;48.772;8.754;2023-04-24T13:46:47;1.13;;;1.13;;
16510;SDS011;8368;48.772;8.754;2023-04-24T13:49:15;1.08;;;1.08;;
16510;SDS011;8368;48.772;8.754;2023-04-24T13:51:41;1.25;;;1.25;;
16510;SDS011;8368;48.772;8.754;2023-04-24T13:54:07;1.02;;;1.02;;
16510;SDS011;8368;48.772;8.754;2023-04-24T13:56:33;1.23;;;1.23;;
16510;SDS011;8368;48.772;8.754;2023-04-24T13:58:58;1.02;;;1.00;;
16510;SDS011;8368;48.772;8.754;2023-04-24T14:01:24;0.90;;;0.90;;
16510;SDS011;8368;48.772;8.754;2023-04-24T14:03:50;1.30;;;1.30;;
16510;SDS011;8368;48.772;8.754;2023-04-24T14:06:17;1.35;;;1.35;;
16510;SDS011;8368;48.772;8.754;2023-04-24T14:08:43;1.10;;;1.10;;
16510;SDS011;8368;48.772;8.754;2023-04-24T14:11:08;1.65;;;1.48;;
16510;SDS011;8368;48.772;8.754;2023-04-24T14:13:35;1.45;;;1.35;;
16510;SDS011;8368;48.772;8.754;2023-04-24T14:16:01;1.60;;;1.50;;
16510;SDS011;8368;48.772;8.754;2023-04-24T14:18:27;1.52;;;1.52;;
16510;SDS011;8368;48.772;8.754;2023-04-24T14:20:53;1.10;;;1.10;;
16510;SDS011;8368;48.772;8.754;2023-04-24T14:23:19;1.30;;;1.30;;
16510;SDS011;8368;48.772;8.754;2023-04-24T14:25:45;4.10;;;1.50;;
16510;SDS011;8368;48.772;8.754;2023-04-24T14:28:11;1.00;;;1.00;;
16510;SDS011;8368;48.772;8.754;2023-04-24T14:30:36;1.48;;;1.48;;
16510;SDS011;8368;48.772;8.754;2023-04-24T14:33:02;1.30;;;1.30;;
16510;SDS011;8368;48.772;8.754;2023-04-24T14:35:29;1.37;;;1.37;;
16510;SDS011;8368;48.772;8.754;2023-04-24T14:37:56;1.77;;;1.43;;
16510;SDS011;8368;48.772;8.754;2023-04-24T14:40:22;1.57;;;1.20;;
16510;SDS011;8368;48.772;8.754;2023-04-24T14:42:47;1.33;;;1.30;;
16510;SDS011;8368;48.772;8.754;2023-04-24T14:45:13;1.67;;;1.27;;
16510;SDS011;8368;48.772;8.754;2023-04-24T14:47:38;1.10;;;1.10;;
16510;SDS011;8368;48.772;8.754;2023-04-24T14:50:04;1.30;;;1.20;;
16510;SDS011;8368;48.772;8.754;2023-04-24T14:52:30;1.10;;;1.10;;
16510;SDS011;8368;48.772;8.754;2023-04-24T14:54:56;1.50;;;1.13;;
16510;SDS011;8368;48.772;8.754;2023-04-24T14:57:22;1.13;;;1.13;;
16510;SDS011;8368;48.772;8.754;2023-04-24T14:59:48;1.20;;;1.20;;
16510;SDS011;8368;48.772;8.754;2023-04-24T15:02:13;0.90;;;0.90;;
16510;SDS011;8368;48.772;8.754;2023-04-24T15:04:39;1.20;;;1.20;;
16510;SDS011;8368;48.772;8.754;2023-04-24T15:07:04;1.43;;;1.43;;
16510;SDS011;8368;48.772;8.754;2023-04-24T15:09:30;1.40;;;1.40;;
16510;SDS011;8368;48.772;8.754;2023-04-24T15:11:57;1.43;;;1.43;;
16510;SDS011;8368;48.772;8.754;2023-04-24T15:14:23;1.37;;;1.37;;
16510;SDS011;8368;48.772;8.754;2023-04-24T15:16:48;1.37;;;1.37;;